sensor_id;sensor_type;location;lat;lon;timestamp;pressure;altitude;pressure_sealevel;temperature;humidity
41218;BME280;26950;50.960;7.138;2023-07-30T00:00:19;100038.97;;;23.51;67.04
41218;BME280;26950;50.960;7.138;2023-07-30T00:02:46;100036.59;;;23.68;66.32
41218;BME280;26950;50.960;7.138;2023-07-30T00:05:12;100038.34;;;23.69;65.70
41218;BME280;26950;50.960;7.138;2023-07-30T00:07:38;100034.47;;;23.25;66.70
41218;BME280;26950;50.960;7.138;2023-07-30T00:10:07;100042.97;;;23.38;65.51
41218;BME280;26950;50.960;7.138;2023-07-30T00:12:33;100047.16;;;23.20;66.39
41218;BME280;26950;50.960;7.138;2023-07-30T00:14:59;100044.84;;;23.62;65.80
41218;BME280;26950;50.960;7.138;2023-07-30T00:17:26;100056.59;;;23.57;65.78
41218;BME280;26950;50.960;7.138;2023-07-30T00:19:52;100058.53;;;23.27;64.18
41218;BME280;26950;50.960;7.138;2023-07-30T00:22:18;100049.56;;;23.01;64.64
41218;BME280;26950;50.960;7.138;2023-07-30T00:24:45;100047.09;;;23.22;67.07
41218;BME280;26950;50.960;7.138;2023-07-30T00:27:12;100041.50;;;23.29;63.79
41218;BME280;26950;50.960;7.138;2023-07-30T00:29:39;100058.34;;;23.05;65.31
41218;BME280;26950;50.960;7.138;2023-07-30T00:32:05;100049.97;;;23.42;65.63
41218;BME280;26950;50.960;7.138;2023-07-30T00:34:32;100056.28;;;23.14;65.18
41218;BME280;26950;50.960;7.138;2023-07-30T00:36:58;100055.53;;;22.80;65.34
41218;BME280;26950;50.960;7.138;2023-07-30T00:39:24;100051.84;;;23.13;64.86
41218;BME280;26950;50.960;7.138;2023-07-30T00:41:50;100044.78;;;23.37;65.38
41218;BME280;26950;50.960;7.138;2023-07-30T00:44:18;100055.53;;;23.09;63.81
41218;BME280;26950;50.960;7.138;2023-07-30T00:46:44;100053.75;;;22.80;64.66
41218;BME280;26950;50.960;7.138;2023-07-30T00:49:11;100056.59;;;22.76;64.63
41218;BME280;26950;50.960;7.138;2023-07-30T00:51:37;100057.50;;;22.45;66.19
41218;BME280;26950;50.960;7.138;2023-07-30T00:54:04;100050.13;;;22.81;64.65
41218;BME280;26950;50.960;7.138;2023-07-30T00:56:30;100054.34;;;23.18;65.78
41218;BME280;26950;50.960;7.138;2023-07-30T00:58:56;100054.59;;;23.10;64.10
41218;BME280;26950;50.960;7.138;2023-07-30T01:01:24;100050.72;;;23.21;64.36
41218;BME280;26950;50.960;7.138;2023-07-30T01:03:50;100049.25;;;23.37;65.56
41218;BME280;26950;50.960;7.138;2023-07-30T01:06:17;100058.00;;;23.15;63.69
41218;BME280;26950;50.960;7.138;2023-07-30T01:08:43;100060.09;;;23.06;64.20
41218;BME280;26950;50.960;7.138;2023-07-30T01:11:09;100070.03;;;22.73;64.12
41218;BME280;26950;50.960;7.138;2023-07-30T01:13:36;100069.09;;;22.74;64.57
41218;BME280;26950;50.960;7.138;2023-07-30T01:16:03;100060.28;;;23.00;64.16
41218;BME280;26950;50.960;7.138;2023-07-30T01:18:33;100070.81;;;23.06;63.64
41218;BME280;26950;50.960;7.138;2023-07-30T01:21:00;100070.50;;;22.87;64.09
41218;BME280;26950;50.960;7.138;2023-07-30T01:23:27;100063.91;;;23.25;64.25
41218;BME280;26950;50.960;7.138;2023-07-30T01:25:54;100073.66;;;23.00;64.58
41218;BME280;26950;50.960;7.138;2023-07-30T01:28:25;100067.41;;;23.01;64.77
41218;BME280;26950;50.960;7.138;2023-07-30T01:30:53;100074.69;;;23.24;65.27
41218;BME280;26950;50.960;7.138;2023-07-30T01:33:20;100077.47;;;22.63;65.13
41218;BME280;26950;50.960;7.138;2023-07-30T01:35:47;100079.63;;;23.09;64.87
41218;BME280;26950;50.960;7.138;2023-07-30T01:38:16;100069.75;;;23.38;64.17
41218;BME280;26950;50.960;7.138;2023-07-30T01:40:42;100079.56;;;23.39;64.08
41218;BME280;26950;50.960;7.138;2023-07-30T01:43:09;100082.16;;;23.14;64.02
41218;BME280;26950;50.960;7.138;2023-07-30T01:45:36;100081.50;;;23.06;64.38
41218;BME280;26950;50.960;7.138;2023-07-30T01:48:02;100082.25;;;23.11;64.15
41218;BME280;26950;50.960;7.138;2023-07-30T01:50:28;100089.81;;;23.25;65.83
41218;BME280;26950;50.960;7.138;2023-07-30T01:52:55;100088.00;;;23.25;63.94
41218;BME280;26950;50.960;7.138;2023-07-30T01:55:22;100088.19;;;22.61;65.09
41218;BME280;26950;50.960;7.138;2023-07-30T01:57:49;100087.63;;;23.37;65.51
41218;BME280;26950;50.960;7.138;2023-07-30T02:00:15;100088.59;;;23.08;64.25
41218;BME280;26950;50.960;7.138;2023-07-30T02:02:41;100088.63;;;23.07;66.60
41218;BME280;26950;50.960;7.138;2023-07-30T02:05:07;100083.44;;;23.29;64.99
41218;BME280;26950;50.960;7.138;2023-07-30T02:07:34;100086.28;;;23.24;66.40
41218;BME280;26950;50.960;7.138;2023-07-30T02:10:00;100086.19;;;23.27;63.51
41218;BME280;26950;50.960;7.138;2023-07-30T02:12:28;100094.03;;;23.33;64.82
41218;BME280;26950;50.960;7.138;2023-07-30T02:14:54;100084.53;;;23.23;63.40
41218;BME280;26950;50.960;7.138;2023-07-30T02:17:20;100082.63;;;23.27;64.26
41218;BME280;26950;50.960;7.138;2023-07-30T02:19:47;100072.06;;;22.94;65.77
41218;BME280;26950;50.960;7.138;2023-07-30T02:22:13;100078.63;;;23.40;65.05
41218;BME280;26950;50.960;7.138;2023-07-30T02:24:39;100075.88;;;23.41;65.10
41218;BME280;26950;50.960;7.138;2023-07-30T02:27:06;100068.31;;;23.54;65.13
41218;BME280;26950;50.960;7.138;2023-07-30T02:29:33;100082.25;;;23.37;64.77
41218;BME280;26950;50.960;7.138;2023-07-30T02:32:00;100089.19;;;23.17;63.94
41218;BME280;26950;50.960;7.138;2023-07-30T02:34:26;100066.66;;;23.50;65.36
41218;BME280;26950;50.960;7.138;2023-07-30T02:36:52;100065.59;;;23.29;63.78
41218;BME280;26950;50.960;7.138;2023-07-30T02:39:19;100061.63;;;23.41;64.78
41218;BME280;26950;50.960;7.138;2023-07-30T02:41:45;100071.34;;;23.17;64.50
41218;BME280;26950;50.960;7.138;2023-07-30T02:44:11;100074.00;;;23.45;63.71
41218;BME280;26950;50.960;7.138;2023-07-30T02:46:39;100085.53;;;23.47;65.55
41218;BME280;26950;50.960;7.138;2023-07-30T02:49:05;100088.41;;;23.41;64.32
41218;BME280;26950;50.960;7.138;2023-07-30T02:51:33;100089.00;;;23.49;64.31
41218;BME280;26950;50.960;7.138;2023-07-30T02:54:03;100082.78;;;23.49;64.58
41218;BME280;26950;50.960;7.138;2023-07-30T02:56:30;100073.66;;;23.28;63.71
41218;BME280;26950;50.960;7.138;2023-07-30T02:58:56;100082.91;;;23.46;65.30
41218;BME280;26950;50.960;7.138;2023-07-30T03:01:22;100082.19;;;23.40;63.70
41218;BME280;26950;50.960;7.138;2023-07-30T03:03:50;100083.59;;;23.51;63.15
41218;BME280;26950;50.960;7.138;2023-07-30T03:06:16;100091.63;;;23.24;63.50
41218;BME280;26950;50.960;7.138;2023-07-30T03:08:43;100099.41;;;23.32;63.30
41218;BME280;26950;50.960;7.138;2023-07-30T03:11:09;100095.38;;;23.19;63.81
41218;BME280;26950;50.960;7.138;2023-07-30T03:13:35;100095.00;;;23.57;64.30
41218;BME280;26950;50.960;7.138;2023-07-30T03:16:02;100097.31;;;23.41;63.05
41218;BME280;26950;50.960;7.138;2023-07-30T03:18:28;100104.38;;;23.16;62.59
41218;BME280;26950;50.960;7.138;2023-07-30T03:20:58;100104.13;;;23.24;62.95
41218;BME280;26950;50.960;7.138;2023-07-30T03:23:25;100112.03;;;23.28;63.69
41218;BME280;26950;50.960;7.138;2023-07-30T03:25:51;100117.56;;;22.94;63.44
41218;BME280;26950;50.960;7.138;2023-07-30T03:28:18;100121.25;;;23.20;64.06
41218;BME280;26950;50.960;7.138;2023-07-30T03:30:44;100121.06;;;23.24;64.69
41218;BME280;26950;50.960;7.138;2023-07-30T03:33:10;100120.53;;;23.41;63.94
41218;BME280;26950;50.960;7.138;2023-07-30T03:35:36;100126.81;;;23.12;63.17
41218;BME280;26950;50.960;7.138;2023-07-30T03:38:04;100119.31;;;23.51;65.07
41218;BME280;26950;50.960;7.138;2023-07-30T03:40:30;100126.41;;;23.52;65.00
41218;BME280;26950;50.960;7.138;2023-07-30T03:42:57;100115.69;;;23.26;62.43
41218;BME280;26950;50.960;7.138;2023-07-30T03:45:23;100130.31;;;22.84;62.76
41218;BME280;26950;50.960;7.138;2023-07-30T03:47:49;100124.00;;;23.17;61.84
41218;BME280;26950;50.960;7.138;2023-07-30T03:50:16;100122.88;;;23.24;61.81
41218;BME280;26950;50.960;7.138;2023-07-30T03:52:42;100124.44;;;23.31;64.96
41218;BME280;26950;50.960;7.138;2023-07-30T03:55:10;100123.94;;;23.18;64.66
41218;BME280;26950;50.960;7.138;2023-07-30T03:57:36;100131.03;;;23.47;64.09
41218;BME280;26950;50.960;7.138;2023-07-30T04:00:03;100132.91;;;23.45;63.07
41218;BME280;26950;50.960;7.138;2023-07-30T04:02:29;100133.38;;;23.30;63.97
41218;BME280;26950;50.960;7.138;2023-07-30T04:04:56;100122.28;;;23.42;63.76
41218;BME280;26950;50.960;7.138;2023-07-30T04:07:22;100133.31;;;23.59;63.40
41218;BME280;26950;50.960;7.138;2023-07-30T04:09:48;100125.00;;;23.40;62.31
41218;BME280;26950;50.960;7.138;2023-07-30T04:12:16;100137.41;;;23.43;62.18
41218;BME280;26950;50.960;7.138;2023-07-30T04:14:44;100143.06;;;23.63;63.73
41218;BME280;26950;50.960;7.138;2023-07-30T04:17:10;100144.22;;;23.25;61.93
41218;BME280;26950;50.960;7.138;2023-07-30T04:19:36;100143.53;;;23.20;63.91
41218;BME280;26950;50.960;7.138;2023-07-30T04:22:03;100143.19;;;22.72;61.08
41218;BME280;26950;50.960;7.138;2023-07-30T04:24:29;100136.00;;;23.03;63.39
41218;BME280;26950;50.960;7.138;2023-07-30T04:26:55;100146.59;;;23.06;61.77
41218;BME280;26950;50.960;7.138;2023-07-30T04:29:23;100140.09;;;22.85;63.26
41218;BME280;26950;50.960;7.138;2023-07-30T04:31:49;100141.09;;;22.81;63.39
41218;BME280;26950;50.960;7.138;2023-07-30T04:34:16;100138.88;;;23.25;62.46
41218;BME280;26950;50.960;7.138;2023-07-30T04:36:42;100144.41;;;22.91;60.60
41218;BME280;26950;50.960;7.138;2023-07-30T04:39:08;100134.50;;;23.23;60.86
41218;BME280;26950;50.960;7.138;2023-07-30T04:41:35;100139.13;;;23.46;61.78
41218;BME280;26950;50.960;7.138;2023-07-30T04:44:01;100145.66;;;23.09;61.79
41218;BME280;26950;50.960;7.138;2023-07-30T04:46:28;100141.41;;;23.30;63.55
41218;BME280;26950;50.960;7.138;2023-07-30T04:48:55;100149.44;;;23.02;61.57
41218;BME280;26950;50.960;7.138;2023-07-30T04:51:22;100147.50;;;23.35;63.70
41218;BME280;26950;50.960;7.138;2023-07-30T04:53:48;100142.34;;;23.29;62.17
41218;BME280;26950;50.960;7.138;2023-07-30T04:56:14;100150.91;;;23.40;62.71
41218;BME280;26950;50.960;7.138;2023-07-30T04:58:40;100146.31;;;22.86;60.25
41218;BME280;26950;50.960;7.138;2023-07-30T05:01:07;100151.97;;;23.06;61.03
41218;BME280;26950;50.960;7.138;2023-07-30T05:03:34;100145.03;;;23.01;60.11
41218;BME280;26950;50.960;7.138;2023-07-30T05:06:01;100144.69;;;23.39;61.02
41218;BME280;26950;50.960;7.138;2023-07-30T05:08:28;100140.22;;;23.40;62.00
41218;BME280;26950;50.960;7.138;2023-07-30T05:10:54;100138.06;;;22.95;61.75
41218;BME280;26950;50.960;7.138;2023-07-30T05:13:20;100148.50;;;22.42;62.61
41218;BME280;26950;50.960;7.138;2023-07-30T05:15:46;100152.44;;;22.91;62.41
41218;BME280;26950;50.960;7.138;2023-07-30T05:18:13;100150.91;;;23.12;61.14
41218;BME280;26950;50.960;7.138;2023-07-30T05:20:41;100156.41;;;23.07;60.12
41218;BME280;26950;50.960;7.138;2023-07-30T05:23:07;100152.31;;;23.24;62.15
41218;BME280;26950;50.960;7.138;2023-07-30T05:25:33;100145.22;;;23.23;60.95
41218;BME280;26950;50.960;7.138;2023-07-30T05:28:00;100149.72;;;23.49;60.78
41218;BME280;26950;50.960;7.138;2023-07-30T05:30:26;100145.13;;;23.26;61.88
41218;BME280;26950;50.960;7.138;2023-07-30T05:32:52;100149.66;;;23.24;60.06
41218;BME280;26950;50.960;7.138;2023-07-30T05:35:19;100157.31;;;23.06;60.79
41218;BME280;26950;50.960;7.138;2023-07-30T05:37:46;100149.66;;;23.24;60.81
41218;BME280;26950;50.960;7.138;2023-07-30T05:40:13;100140.78;;;23.22;61.69
41218;BME280;26950;50.960;7.138;2023-07-30T05:42:39;100144.28;;;22.96;59.12
41218;BME280;26950;50.960;7.138;2023-07-30T05:45:06;100140.34;;;23.07;59.00
41218;BME280;26950;50.960;7.138;2023-07-30T05:47:33;100156.91;;;22.91;57.98
41218;BME280;26950;50.960;7.138;2023-07-30T05:49:59;100161.91;;;22.72;58.42
41218;BME280;26950;50.960;7.138;2023-07-30T05:52:25;100156.00;;;22.60;58.97
41218;BME280;26950;50.960;7.138;2023-07-30T05:54:53;100159.00;;;22.79;58.17
41218;BME280;26950;50.960;7.138;2023-07-30T05:57:19;100162.66;;;23.06;59.69
41218;BME280;26950;50.960;7.138;2023-07-30T05:59:45;100159.09;;;23.07;58.57
41218;BME280;26950;50.960;7.138;2023-07-30T06:02:12;100168.38;;;22.94;60.52
41218;BME280;26950;50.960;7.138;2023-07-30T06:04:38;100160.63;;;22.85;57.54
41218;BME280;26950;50.960;7.138;2023-07-30T06:07:05;100153.56;;;23.13;59.93
41218;BME280;26950;50.960;7.138;2023-07-30T06:09:31;100155.19;;;23.18;57.92
41218;BME280;26950;50.960;7.138;2023-07-30T06:11:59;100160.75;;;22.80;59.20
41218;BME280;26950;50.960;7.138;2023-07-30T06:14:25;100162.78;;;23.03;60.79
41218;BME280;26950;50.960;7.138;2023-07-30T06:16:52;100160.34;;;23.24;60.11
41218;BME280;26950;50.960;7.138;2023-07-30T06:19:18;100158.72;;;23.20;60.01
41218;BME280;26950;50.960;7.138;2023-07-30T06:21:44;100163.97;;;22.93;60.46
41218;BME280;26950;50.960;7.138;2023-07-30T06:24:11;100165.22;;;22.80;60.09
41218;BME280;26950;50.960;7.138;2023-07-30T06:26:37;100161.50;;;22.54;58.36
41218;BME280;26950;50.960;7.138;2023-07-30T06:29:05;100162.53;;;22.50;58.83
41218;BME280;26950;50.960;7.138;2023-07-30T06:31:31;100171.31;;;22.85;59.14
41218;BME280;26950;50.960;7.138;2023-07-30T06:33:57;100172.44;;;22.78;58.67
41218;BME280;26950;50.960;7.138;2023-07-30T06:36:24;100173.06;;;22.87;62.15
41218;BME280;26950;50.960;7.138;2023-07-30T06:38:50;100178.03;;;23.00;60.19
41218;BME280;26950;50.960;7.138;2023-07-30T06:41:16;100167.16;;;23.06;60.87
41218;BME280;26950;50.960;7.138;2023-07-30T06:43:43;100177.16;;;22.99;60.16
41218;BME280;26950;50.960;7.138;2023-07-30T06:46:10;100180.94;;;23.22;62.12
41218;BME280;26950;50.960;7.138;2023-07-30T06:48:37;100190.25;;;23.38;61.94
41218;BME280;26950;50.960;7.138;2023-07-30T06:51:05;100196.19;;;23.20;58.43
41218;BME280;26950;50.960;7.138;2023-07-30T06:53:31;100206.97;;;22.87;61.90
41218;BME280;26950;50.960;7.138;2023-07-30T06:55:58;100211.72;;;23.36;61.80
41218;BME280;26950;50.960;7.138;2023-07-30T06:58:24;100217.19;;;23.32;59.96
41218;BME280;26950;50.960;7.138;2023-07-30T07:00:50;100219.78;;;23.07;58.36
41218;BME280;26950;50.960;7.138;2023-07-30T07:03:18;100224.97;;;23.11;57.10
41218;BME280;26950;50.960;7.138;2023-07-30T07:05:44;100220.75;;;22.72;59.99
41218;BME280;26950;50.960;7.138;2023-07-30T07:08:11;100224.94;;;22.49;57.78
41218;BME280;26950;50.960;7.138;2023-07-30T07:10:37;100226.25;;;22.98;57.46
41218;BME280;26950;50.960;7.138;2023-07-30T07:13:03;100230.41;;;21.75;59.53
41218;BME280;26950;50.960;7.138;2023-07-30T07:15:30;100225.03;;;22.46;60.24
41218;BME280;26950;50.960;7.138;2023-07-30T07:17:56;100222.25;;;22.17;57.97
41218;BME280;26950;50.960;7.138;2023-07-30T07:20:23;100224.91;;;21.42;61.64
41218;BME280;26950;50.960;7.138;2023-07-30T07:22:50;100226.66;;;22.18;60.49
41218;BME280;26950;50.960;7.138;2023-07-30T07:25:16;100224.06;;;22.49;58.62
41218;BME280;26950;50.960;7.138;2023-07-30T07:27:44;100226.63;;;22.84;61.20
41218;BME280;26950;50.960;7.138;2023-07-30T07:30:11;100224.19;;;22.77;60.21
41218;BME280;26950;50.960;7.138;2023-07-30T07:32:37;100219.72;;;23.08;58.05
41218;BME280;26950;50.960;7.138;2023-07-30T07:35:04;100215.31;;;22.10;59.21
41218;BME280;26950;50.960;7.138;2023-07-30T07:37:32;100215.81;;;23.19;58.38
41218;BME280;26950;50.960;7.138;2023-07-30T07:39:59;100221.66;;;22.40;56.27
41218;BME280;26950;50.960;7.138;2023-07-30T07:42:25;100218.38;;;22.28;55.27
41218;BME280;26950;50.960;7.138;2023-07-30T07:44:51;100222.97;;;22.56;54.84
41218;BME280;26950;50.960;7.138;2023-07-30T07:47:18;100229.44;;;22.80;55.57
41218;BME280;26950;50.960;7.138;2023-07-30T07:49:44;100229.88;;;22.97;53.50
41218;BME280;26950;50.960;7.138;2023-07-30T07:52:10;100236.63;;;22.78;56.63
41218;BME280;26950;50.960;7.138;2023-07-30T07:54:38;100233.09;;;22.77;54.02
41218;BME280;26950;50.960;7.138;2023-07-30T07:57:06;100235.75;;;21.36;56.71
41218;BME280;26950;50.960;7.138;2023-07-30T07:59:33;100225.44;;;22.64;55.98
41218;BME280;26950;50.960;7.138;2023-07-30T08:02:00;100234.28;;;22.98;55.17
41218;BME280;26950;50.960;7.138;2023-07-30T08:04:26;100226.50;;;22.56;56.30
41218;BME280;26950;50.960;7.138;2023-07-30T08:06:52;100234.19;;;22.70;53.31
41218;BME280;26950;50.960;7.138;2023-07-30T08:09:19;100230.25;;;22.51;53.56
41218;BME280;26950;50.960;7.138;2023-07-30T08:11:46;100224.69;;;22.91;55.23
41218;BME280;26950;50.960;7.138;2023-07-30T08:14:13;100224.78;;;23.18;53.71
41218;BME280;26950;50.960;7.138;2023-07-30T08:16:39;100219.53;;;23.14;52.32
41218;BME280;26950;50.960;7.138;2023-07-30T08:19:05;100222.66;;;23.29;52.71
41218;BME280;26950;50.960;7.138;2023-07-30T08:21:32;100226.44;;;22.92;52.88
41218;BME280;26950;50.960;7.138;2023-07-30T08:23:58;100222.75;;;22.96;52.83
41218;BME280;26950;50.960;7.138;2023-07-30T08:26:24;100225.84;;;22.48;53.94
41218;BME280;26950;50.960;7.138;2023-07-30T08:28:52;100229.72;;;22.38;54.79
41218;BME280;26950;50.960;7.138;2023-07-30T08:31:18;100225.53;;;23.23;54.02
41218;BME280;26950;50.960;7.138;2023-07-30T08:33:44;100233.28;;;23.02;54.35
41218;BME280;26950;50.960;7.138;2023-07-30T08:36:11;100230.69;;;22.99;53.30
41218;BME280;26950;50.960;7.138;2023-07-30T08:38:37;100239.66;;;23.57;53.70
41218;BME280;26950;50.960;7.138;2023-07-30T08:41:03;100234.47;;;23.51;50.15
41218;BME280;26950;50.960;7.138;2023-07-30T08:43:30;100228.19;;;23.52;51.47
41218;BME280;26950;50.960;7.138;2023-07-30T08:45:58;100224.53;;;23.55;51.44
41218;BME280;26950;50.960;7.138;2023-07-30T08:48:25;100226.25;;;23.57;53.34
41218;BME280;26950;50.960;7.138;2023-07-30T08:50:52;100228.03;;;23.57;53.40
41218;BME280;26950;50.960;7.138;2023-07-30T08:53:22;100229.59;;;23.65;50.63
41218;BME280;26950;50.960;7.138;2023-07-30T08:55:49;100236.38;;;22.54;53.97
41218;BME280;26950;50.960;7.138;2023-07-30T08:58:15;100236.53;;;22.16;54.83
41218;BME280;26950;50.960;7.138;2023-07-30T09:00:42;100238.56;;;22.73;53.07
41218;BME280;26950;50.960;7.138;2023-07-30T09:03:10;100247.91;;;22.91;53.44
41218;BME280;26950;50.960;7.138;2023-07-30T09:05:41;100246.47;;;22.45;54.44
41218;BME280;26950;50.960;7.138;2023-07-30T09:08:07;100253.59;;;23.09;53.76
41218;BME280;26950;50.960;7.138;2023-07-30T09:10:34;100247.59;;;23.01;54.81
41218;BME280;26950;50.960;7.138;2023-07-30T09:13:01;100265.13;;;23.41;53.70
41218;BME280;26950;50.960;7.138;2023-07-30T09:15:29;100255.97;;;23.20;52.41
41218;BME280;26950;50.960;7.138;2023-07-30T09:17:56;100257.66;;;23.52;53.89
41218;BME280;26950;50.960;7.138;2023-07-30T09:20:23;100257.72;;;23.49;51.83
41218;BME280;26950;50.960;7.138;2023-07-30T09:22:50;100267.78;;;24.27;nan
41218;BME280;26950;50.960;7.138;2023-07-30T09:25:17;100258.34;;;24.15;52.22
41218;BME280;26950;50.960;7.138;2023-07-30T09:27:47;100266.31;;;23.90;48.75
41218;BME280;26950;50.960;7.138;2023-07-30T09:30:13;100263.75;;;23.57;50.60
41218;BME280;26950;50.960;7.138;2023-07-30T09:32:40;100265.91;;;24.02;51.39
41218;BME280;26950;50.960;7.138;2023-07-30T09:35:06;100260.25;;;24.38;49.88
41218;BME280;26950;50.960;7.138;2023-07-30T09:37:37;100264.97;;;24.03;49.94
41218;BME280;26950;50.960;7.138;2023-07-30T09:40:04;100272.13;;;24.56;52.19
41218;BME280;26950;50.960;7.138;2023-07-30T09:42:31;100268.59;;;25.05;50.70
41218;BME280;26950;50.960;7.138;2023-07-30T09:44:59;100264.75;;;24.87;47.79
41218;BME280;26950;50.960;7.138;2023-07-30T09:47:25;100265.81;;;25.08;48.78
41218;BME280;26950;50.960;7.138;2023-07-30T09:49:52;100266.22;;;24.96;46.79
41218;BME280;26950;50.960;7.138;2023-07-30T09:52:19;100267.09;;;25.21;49.58
41218;BME280;26950;50.960;7.138;2023-07-30T09:54:47;100270.00;;;24.90;47.44
41218;BME280;26950;50.960;7.138;2023-07-30T09:57:15;100264.97;;;25.06;46.89
41218;BME280;26950;50.960;7.138;2023-07-30T09:59:41;100264.72;;;25.59;46.25
41218;BME280;26950;50.960;7.138;2023-07-30T10:02:07;100267.91;;;25.47;47.49
41218;BME280;26950;50.960;7.138;2023-07-30T10:04:34;100269.75;;;24.73;46.47
41218;BME280;26950;50.960;7.138;2023-07-30T10:07:07;100274.59;;;24.87;48.19
41218;BME280;26950;50.960;7.138;2023-07-30T10:09:35;100275.41;;;24.89;44.86
41218;BME280;26950;50.960;7.138;2023-07-30T10:12:05;100269.53;;;24.79;46.34
41218;BME280;26950;50.960;7.138;2023-07-30T10:14:31;100273.50;;;24.42;48.89
41218;BME280;26950;50.960;7.138;2023-07-30T10:16:59;100272.94;;;24.83;47.39
41218;BME280;26950;50.960;7.138;2023-07-30T10:19:26;100280.47;;;24.98;46.29
41218;BME280;26950;50.960;7.138;2023-07-30T10:21:53;100283.78;;;25.29;47.17
41218;BME280;26950;50.960;7.138;2023-07-30T10:24:23;100274.03;;;25.27;45.85
41218;BME280;26950;50.960;7.138;2023-07-30T10:26:51;100286.50;;;25.05;46.32
41218;BME280;26950;50.960;7.138;2023-07-30T10:29:24;100279.72;;;24.43;46.22
41218;BME280;26950;50.960;7.138;2023-07-30T10:31:52;100277.63;;;24.78;46.75
41218;BME280;26950;50.960;7.138;2023-07-30T10:34:18;100278.31;;;24.83;45.62
41218;BME280;26950;50.960;7.138;2023-07-30T10:36:46;100272.91;;;24.84;47.53
41218;BME280;26950;50.960;7.138;2023-07-30T10:39:14;100284.16;;;24.70;44.81
41218;BME280;26950;50.960;7.138;2023-07-30T10:41:40;100280.25;;;24.54;44.11
41218;BME280;26950;50.960;7.138;2023-07-30T10:44:08;100288.72;;;24.42;44.19
41218;BME280;26950;50.960;7.138;2023-07-30T10:46:44;100285.66;;;25.27;44.67
41218;BME280;26950;50.960;7.138;2023-07-30T10:49:10;100277.63;;;25.73;44.85
41218;BME280;26950;50.960;7.138;2023-07-30T10:51:37;100275.19;;;25.43;45.93
41218;BME280;26950;50.960;7.138;2023-07-30T10:54:05;100266.94;;;25.71;47.50
41218;BME280;26950;50.960;7.138;2023-07-30T10:56:32;100259.91;;;24.97;49.86
41218;BME280;26950;50.960;7.138;2023-07-30T10:59:00;100265.84;;;24.04;50.62
41218;BME280;26950;50.960;7.138;2023-07-30T11:01:29;100270.56;;;23.38;51.08
41218;BME280;26950;50.960;7.138;2023-07-30T11:03:56;100269.41;;;22.53;51.74
41218;BME280;26950;50.960;7.138;2023-07-30T11:06:24;100252.78;;;21.69;53.67
41218;BME280;26950;50.960;7.138;2023-07-30T11:08:50;100270.94;;;20.67;55.94
41218;BME280;26950;50.960;7.138;2023-07-30T11:11:16;100283.56;;;21.04;55.07
41218;BME280;26950;50.960;7.138;2023-07-30T11:13:43;100271.72;;;22.33;54.53
41218;BME280;26950;50.960;7.138;2023-07-30T11:16:11;100276.22;;;22.31;55.90
41218;BME280;26950;50.960;7.138;2023-07-30T11:18:37;100272.28;;;23.40;53.54
41218;BME280;26950;50.960;7.138;2023-07-30T11:21:05;100271.69;;;22.67;53.18
41218;BME280;26950;50.960;7.138;2023-07-30T11:23:32;100279.50;;;22.75;51.37
41218;BME280;26950;50.960;7.138;2023-07-30T11:26:00;100279.84;;;20.66;53.25
41218;BME280;26950;50.960;7.138;2023-07-30T11:28:27;100273.66;;;20.64;58.86
41218;BME280;26950;50.960;7.138;2023-07-30T11:30:55;100272.16;;;20.51;58.90
41218;BME280;26950;50.960;7.138;2023-07-30T11:33:21;100281.50;;;21.60;57.92
41218;BME280;26950;50.960;7.138;2023-07-30T11:35:47;100278.41;;;21.39;59.38
41218;BME280;26950;50.960;7.138;2023-07-30T11:38:15;100290.81;;;22.18;54.45
41218;BME280;26950;50.960;7.138;2023-07-30T11:40:42;100280.56;;;22.35;54.82
41218;BME280;26950;50.960;7.138;2023-07-30T11:43:08;100299.03;;;22.08;55.17
41218;BME280;26950;50.960;7.138;2023-07-30T11:45:36;100275.22;;;22.69;50.08
41218;BME280;26950;50.960;7.138;2023-07-30T11:48:05;100279.38;;;22.13;51.37
41218;BME280;26950;50.960;7.138;2023-07-30T11:50:41;100285.44;;;21.80;52.36
41218;BME280;26950;50.960;7.138;2023-07-30T11:53:08;100284.41;;;21.88;57.59
41218;BME280;26950;50.960;7.138;2023-07-30T11:55:38;100282.38;;;22.34;55.59
41218;BME280;26950;50.960;7.138;2023-07-30T11:58:04;100285.97;;;22.33;51.76
41218;BME280;26950;50.960;7.138;2023-07-30T12:00:31;100295.44;;;22.79;54.96
41218;BME280;26950;50.960;7.138;2023-07-30T12:02:59;100292.69;;;22.48;55.82
41218;BME280;26950;50.960;7.138;2023-07-30T12:05:31;100297.19;;;22.12;52.22
41218;BME280;26950;50.960;7.138;2023-07-30T12:07:57;100311.13;;;21.86;52.22
41218;BME280;26950;50.960;7.138;2023-07-30T12:10:27;100298.06;;;21.74;52.43
41218;BME280;26950;50.960;7.138;2023-07-30T12:12:55;100307.41;;;21.93;53.24
41218;BME280;26950;50.960;7.138;2023-07-30T12:15:21;100303.53;;;21.68;52.96
41218;BME280;26950;50.960;7.138;2023-07-30T12:17:48;100300.69;;;21.77;51.49
41218;BME280;26950;50.960;7.138;2023-07-30T12:20:14;100302.19;;;21.87;52.84
41218;BME280;26950;50.960;7.138;2023-07-30T12:22:40;100306.47;;;21.57;52.93
41218;BME280;26950;50.960;7.138;2023-07-30T12:25:09;100304.56;;;22.38;52.66
41218;BME280;26950;50.960;7.138;2023-07-30T12:27:35;100305.06;;;22.18;51.37
41218;BME280;26950;50.960;7.138;2023-07-30T12:30:03;100314.97;;;22.15;52.12
41218;BME280;26950;50.960;7.138;2023-07-30T12:32:30;100310.94;;;21.57;52.60
41218;BME280;26950;50.960;7.138;2023-07-30T12:34:56;100310.22;;;21.87;54.01
41218;BME280;26950;50.960;7.138;2023-07-30T12:37:22;100321.72;;;21.91;51.75
41218;BME280;26950;50.960;7.138;2023-07-30T12:39:49;100325.53;;;22.19;57.33
41218;BME280;26950;50.960;7.138;2023-07-30T12:42:15;100323.25;;;21.64;55.56
41218;BME280;26950;50.960;7.138;2023-07-30T12:44:41;100329.25;;;22.12;55.69
41218;BME280;26950;50.960;7.138;2023-07-30T12:47:09;100335.59;;;21.69;55.80